sensor_id;sensor_type;location;lat;lon;timestamp;P1;durP1;ratioP1;P2;durP2;ratioP2
19131;SDS011;9698;51.976;7.570;2023-04-22T00:01:55;10.83;;;7.33;;
19131;SDS011;9698;51.976;7.570;2023-04-22T00:04:23;9.67;;;6.60;;
19131;SDS011;9698;51.976;7.570;2023-04-22T00:06:52;7.43;;;6.73;;
19131;SDS011;9698;51.976;7.570;2023-04-22T00:09:19;8.10;;;6.60;;
19131;SDS011;9698;51.976;7.570;2023-04-22T00:11:47;7.97;;;6.67;;
19131;SDS011;9698;51.976;7.570;2023-04-22T00:14:15;7.23;;;6.53;;
19131;SDS011;9698;51.976;7.570;2023-04-22T00:16:43;7.43;;;6.63;;
19131;SDS011;9698;51.976;7.570;2023-04-22T00:19:11;11.27;;;7.40;;
19131;SDS011;9698;51.976;7.570;2023-04-22T00:21:38;7.90;;;6.97;;
19131;SDS011;9698;51.976;7.570;2023-04-22T00:24:06;10.60;;;8.20;;
19131;SDS011;9698;51.976;7.570;2023-04-22T00:26:34;8.63;;;6.30;;
19131;SDS011;9698;51.976;7.570;2023-04-22T00:29:02;8.30;;;7.43;;
19131;SDS011;9698;51.976;7.570;2023-04-22T00:31:30;9.10;;;7.13;;
19131;SDS011;9698;51.976;7.570;2023-04-22T00:33:58;8.20;;;7.40;;
19131;SDS011;9698;51.976;7.570;2023-04-22T00:36:26;6.53;;;5.83;;
19131;SDS011;9698;51.976;7.570;2023-04-22T00:38:53;7.50;;;6.80;;
19131;SDS011;9698;51.976;7.570;2023-04-22T00:41:22;6.80;;;6.10;;
19131;SDS011;9698;51.976;7.570;2023-04-22T00:43:51;9.10;;;6.97;;
19131;SDS011;9698;51.976;7.570;2023-04-22T00:46:20;8.50;;;6.83;;
19131;SDS011;9698;51.976;7.570;2023-04-22T00:48:48;9.17;;;7.57;;
19131;SDS011;9698;51.976;7.570;2023-04-22T00:51:16;10.87;;;7.33;;
19131;SDS011;9698;51.976;7.570;2023-04-22T00:53:44;8.47;;;7.13;;
19131;SDS011;9698;51.976;7.570;2023-04-22T00:56:12;6.57;;;5.87;;
19131;SDS011;9698;51.976;7.570;2023-04-22T00:58:40;8.10;;;6.53;;
19131;SDS011;9698;51.976;7.570;2023-04-22T01:01:08;7.27;;;6.23;;
19131;SDS011;9698;51.976;7.570;2023-04-22T01:03:37;8.70;;;6.87;;
19131;SDS011;9698;51.976;7.570;2023-04-22T01:06:07;8.90;;;7.13;;
19131;SDS011;9698;51.976;7.570;2023-04-22T01:08:35;11.57;;;6.83;;
19131;SDS011;9698;51.976;7.570;2023-04-22T01:11:03;8.23;;;6.63;;
19131;SDS011;9698;51.976;7.570;2023-04-22T01:13:31;6.83;;;6.13;;
19131;SDS011;9698;51.976;7.570;2023-04-22T01:16:01;8.40;;;6.37;;
19131;SDS011;9698;51.976;7.570;2023-04-22T01:18:31;8.23;;;6.00;;
19131;SDS011;9698;51.976;7.570;2023-04-22T01:21:02;7.47;;;6.77;;
19131;SDS011;9698;51.976;7.570;2023-04-22T01:23:30;7.33;;;6.57;;
19131;SDS011;9698;51.976;7.570;2023-04-22T01:25:59;7.60;;;6.83;;
19131;SDS011;9698;51.976;7.570;2023-04-22T01:28:27;7.20;;;6.50;;
19131;SDS011;9698;51.976;7.570;2023-04-22T01:30:56;7.23;;;6.40;;
19131;SDS011;9698;51.976;7.570;2023-04-22T01:33:23;7.17;;;6.00;;
19131;SDS011;9698;51.976;7.570;2023-04-22T01:35:52;6.73;;;6.00;;
19131;SDS011;9698;51.976;7.570;2023-04-22T01:38:19;6.97;;;6.17;;
19131;SDS011;9698;51.976;7.570;2023-04-22T01:40:47;6.93;;;6.23;;
19131;SDS011;9698;51.976;7.570;2023-04-22T01:43:16;6.07;;;5.47;;
19131;SDS011;9698;51.976;7.570;2023-04-22T01:45:45;6.13;;;5.57;;
19131;SDS011;9698;51.976;7.570;2023-04-22T01:48:13;7.13;;;6.00;;
19131;SDS011;9698;51.976;7.570;2023-04-22T01:50:40;6.07;;;5.50;;
19131;SDS011;9698;51.976;7.570;2023-04-22T01:53:08;6.53;;;5.93;;
19131;SDS011;9698;51.976;7.570;2023-04-22T01:55:37;6.63;;;6.00;;
19131;SDS011;9698;51.976;7.570;2023-04-22T01:58:05;8.93;;;6.53;;
19131;SDS011;9698;51.976;7.570;2023-04-22T02:00:33;6.90;;;6.13;;
19131;SDS011;9698;51.976;7.570;2023-04-22T02:03:01;8.10;;;6.40;;
19131;SDS011;9698;51.976;7.570;2023-04-22T02:05:29;6.10;;;5.47;;
19131;SDS011;9698;51.976;7.570;2023-04-22T02:07:57;8.13;;;6.63;;
19131;SDS011;9698;51.976;7.570;2023-04-22T02:10:25;7.20;;;5.87;;
19131;SDS011;9698;51.976;7.570;2023-04-22T02:12:52;7.33;;;6.50;;
19131;SDS011;9698;51.976;7.570;2023-04-22T02:15:20;7.00;;;6.30;;
19131;SDS011;9698;51.976;7.570;2023-04-22T02:17:48;7.60;;;6.40;;
19131;SDS011;9698;51.976;7.570;2023-04-22T02:20:16;6.50;;;5.67;;
19131;SDS011;9698;51.976;7.570;2023-04-22T02:22:44;7.83;;;5.77;;
19131;SDS011;9698;51.976;7.570;2023-04-22T02:25:12;6.90;;;6.20;;
19131;SDS011;9698;51.976;7.570;2023-04-22T02:27:39;7.90;;;5.87;;
19131;SDS011;9698;51.976;7.570;2023-04-22T02:30:08;7.20;;;6.13;;
19131;SDS011;9698;51.976;7.570;2023-04-22T02:32:37;6.87;;;6.23;;
19131;SDS011;9698;51.976;7.570;2023-04-22T02:35:06;7.93;;;7.13;;
19131;SDS011;9698;51.976;7.570;2023-04-22T02:37:35;6.63;;;5.93;;
19131;SDS011;9698;51.976;7.570;2023-04-22T02:40:04;6.70;;;6.10;;
19131;SDS011;9698;51.976;7.570;2023-04-22T02:42:33;6.90;;;6.20;;
19131;SDS011;9698;51.976;7.570;2023-04-22T02:45:01;8.17;;;7.20;;
19131;SDS011;9698;51.976;7.570;2023-04-22T02:47:31;6.40;;;5.80;;
19131;SDS011;9698;51.976;7.570;2023-04-22T02:49:58;8.77;;;7.30;;
19131;SDS011;9698;51.976;7.570;2023-04-22T02:52:26;7.63;;;6.90;;
19131;SDS011;9698;51.976;7.570;2023-04-22T02:54:54;8.20;;;7.10;;
19131;SDS011;9698;51.976;7.570;2023-04-22T02:57:22;7.80;;;7.00;;
19131;SDS011;9698;51.976;7.570;2023-04-22T02:59:49;8.57;;;7.23;;
19131;SDS011;9698;51.976;7.570;2023-04-22T03:02:17;8.10;;;6.87;;
19131;SDS011;9698;51.976;7.570;2023-04-22T03:04:45;8.97;;;7.17;;
19131;SDS011;9698;51.976;7.570;2023-04-22T03:07:13;8.10;;;6.77;;
19131;SDS011;9698;51.976;7.570;2023-04-22T03:09:41;8.20;;;7.10;;
19131;SDS011;9698;51.976;7.570;2023-04-22T03:12:08;7.97;;;6.80;;
19131;SDS011;9698;51.976;7.570;2023-04-22T03:14:37;8.20;;;6.83;;
19131;SDS011;9698;51.976;7.570;2023-04-22T03:17:04;7.90;;;7.10;;
19131;SDS011;9698;51.976;7.570;2023-04-22T03:19:32;9.40;;;7.30;;
19131;SDS011;9698;51.976;7.570;2023-04-22T03:22:00;9.00;;;7.80;;
19131;SDS011;9698;51.976;7.570;2023-04-22T03:24:28;8.67;;;6.90;;
19131;SDS011;9698;51.976;7.570;2023-04-22T03:26:56;7.93;;;7.13;;
19131;SDS011;9698;51.976;7.570;2023-04-22T03:29:24;7.93;;;6.90;;
19131;SDS011;9698;51.976;7.570;2023-04-22T03:31:52;8.03;;;6.90;;
19131;SDS011;9698;51.976;7.570;2023-04-22T03:34:19;7.77;;;6.73;;
19131;SDS011;9698;51.976;7.570;2023-04-22T03:36:48;7.73;;;6.93;;
19131;SDS011;9698;51.976;7.570;2023-04-22T03:39:16;7.53;;;6.83;;
19131;SDS011;9698;51.976;7.570;2023-04-22T03:41:43;7.97;;;6.63;;
19131;SDS011;9698;51.976;7.570;2023-04-22T03:44:11;8.97;;;7.03;;
19131;SDS011;9698;51.976;7.570;2023-04-22T03:46:39;7.73;;;6.67;;
19131;SDS011;9698;51.976;7.570;2023-04-22T03:49:07;8.33;;;7.43;;
19131;SDS011;9698;51.976;7.570;2023-04-22T03:51:35;7.43;;;6.73;;
19131;SDS011;9698;51.976;7.570;2023-04-22T03:54:03;8.73;;;7.70;;
19131;SDS011;9698;51.976;7.570;2023-04-22T03:56:31;7.77;;;6.97;;
19131;SDS011;9698;51.976;7.570;2023-04-22T03:58:59;10.83;;;7.73;;
19131;SDS011;9698;51.976;7.570;2023-04-22T04:01:26;9.60;;;6.93;;
19131;SDS011;9698;51.976;7.570;2023-04-22T04:03:54;8.70;;;7.60;;
19131;SDS011;9698;51.976;7.570;2023-04-22T04:06:22;8.67;;;7.07;;
19131;SDS011;9698;51.976;7.570;2023-04-22T04:08:50;8.50;;;7.60;;
19131;SDS011;9698;51.976;7.570;2023-04-22T04:11:18;7.87;;;7.07;;
19131;SDS011;9698;51.976;7.570;2023-04-22T04:13:46;8.40;;;7.50;;
19131;SDS011;9698;51.976;7.570;2023-04-22T04:16:14;8.83;;;7.03;;
19131;SDS011;9698;51.976;7.570;2023-04-22T04:18:42;8.60;;;7.63;;
19131;SDS011;9698;51.976;7.570;2023-04-22T04:21:10;9.33;;;7.73;;
19131;SDS011;9698;51.976;7.570;2023-04-22T04:23:38;10.03;;;7.43;;
19131;SDS011;9698;51.976;7.570;2023-04-22T04:26:05;8.87;;;7.77;;
19131;SDS011;9698;51.976;7.570;2023-04-22T04:28:33;8.23;;;7.07;;
19131;SDS011;9698;51.976;7.570;2023-04-22T04:31:01;8.90;;;7.63;;
19131;SDS011;9698;51.976;7.570;2023-04-22T04:33:29;11.53;;;7.33;;
19131;SDS011;9698;51.976;7.570;2023-04-22T04:35:57;8.47;;;7.40;;
19131;SDS011;9698;51.976;7.570;2023-04-22T04:38:25;9.20;;;7.40;;
19131;SDS011;9698;51.976;7.570;2023-04-22T04:40:54;7.90;;;7.10;;
19131;SDS011;9698;51.976;7.570;2023-04-22T04:43:22;7.83;;;7.03;;
19131;SDS011;9698;51.976;7.570;2023-04-22T04:45:50;8.50;;;7.70;;
19131;SDS011;9698;51.976;7.570;2023-04-22T04:48:18;9.37;;;7.50;;
19131;SDS011;9698;51.976;7.570;2023-04-22T04:50:50;7.93;;;7.13;;
19131;SDS011;9698;51.976;7.570;2023-04-22T04:53:19;8.53;;;7.17;;
19131;SDS011;9698;51.976;7.570;2023-04-22T04:55:48;12.50;;;7.37;;
19131;SDS011;9698;51.976;7.570;2023-04-22T04:58:15;8.63;;;7.70;;
19131;SDS011;9698;51.976;7.570;2023-04-22T05:00:43;8.27;;;7.47;;
19131;SDS011;9698;51.976;7.570;2023-04-22T05:03:11;8.27;;;7.33;;
19131;SDS011;9698;51.976;7.570;2023-04-22T05:05:39;9.40;;;7.93;;
19131;SDS011;9698;51.976;7.570;2023-04-22T05:10:52;10.13;;;7.07;;
19131;SDS011;9698;51.976;7.570;2023-04-22T05:13:21;8.00;;;7.07;;
19131;SDS011;9698;51.976;7.570;2023-04-22T05:15:49;9.10;;;7.17;;
19131;SDS011;9698;51.976;7.570;2023-04-22T05:18:17;7.67;;;6.87;;
19131;SDS011;9698;51.976;7.570;2023-04-22T05:20:44;8.07;;;7.27;;
19131;SDS011;9698;51.976;7.570;2023-04-22T05:23:12;10.63;;;7.20;;
19131;SDS011;9698;51.976;7.570;2023-04-22T05:25:40;8.67;;;7.23;;
19131;SDS011;9698;51.976;7.570;2023-04-22T05:28:08;8.43;;;7.20;;
19131;SDS011;9698;51.976;7.570;2023-04-22T05:30:36;8.20;;;7.33;;
19131;SDS011;9698;51.976;7.570;2023-04-22T05:33:03;8.73;;;7.83;;
19131;SDS011;9698;51.976;7.570;2023-04-22T05:35:33;8.10;;;7.30;;
19131;SDS011;9698;51.976;7.570;2023-04-22T05:38:01;8.30;;;7.10;;
19131;SDS011;9698;51.976;7.570;2023-04-22T05:40:29;7.23;;;6.53;;
19131;SDS011;9698;51.976;7.570;2023-04-22T05:42:57;8.23;;;7.43;;
19131;SDS011;9698;51.976;7.570;2023-04-22T05:45:24;8.37;;;7.23;;
19131;SDS011;9698;51.976;7.570;2023-04-22T05:47:52;7.60;;;6.80;;
19131;SDS011;9698;51.976;7.570;2023-04-22T05:50:20;8.30;;;6.83;;
19131;SDS011;9698;51.976;7.570;2023-04-22T05:52:49;7.80;;;6.90;;
19131;SDS011;9698;51.976;7.570;2023-04-22T05:55:17;8.93;;;7.30;;
19131;SDS011;9698;51.976;7.570;2023-04-22T05:57:45;8.53;;;7.00;;
19131;SDS011;9698;51.976;7.570;2023-04-22T06:00:15;7.97;;;6.97;;
19131;SDS011;9698;51.976;7.570;2023-04-22T06:02:43;7.47;;;6.70;;
19131;SDS011;9698;51.976;7.570;2023-04-22T06:05:12;9.03;;;7.30;;
19131;SDS011;9698;51.976;7.570;2023-04-22T06:07:40;7.60;;;6.80;;
19131;SDS011;9698;51.976;7.570;2023-04-22T06:10:08;8.10;;;7.17;;
19131;SDS011;9698;51.976;7.570;2023-04-22T06:12:36;8.07;;;6.77;;
19131;SDS011;9698;51.976;7.570;2023-04-22T06:15:05;8.10;;;7.13;;
19131;SDS011;9698;51.976;7.570;2023-04-22T06:17:53;7.83;;;7.03;;
19131;SDS011;9698;51.976;7.570;2023-04-22T06:20:21;7.50;;;6.70;;
19131;SDS011;9698;51.976;7.570;2023-04-22T06:22:49;7.87;;;6.60;;
19131;SDS011;9698;51.976;7.570;2023-04-22T06:25:17;6.93;;;6.23;;
19131;SDS011;9698;51.976;7.570;2023-04-22T06:27:45;6.97;;;6.17;;
19131;SDS011;9698;51.976;7.570;2023-04-22T06:30:13;7.80;;;7.00;;
19131;SDS011;9698;51.976;7.570;2023-04-22T06:32:41;7.40;;;6.57;;
19131;SDS011;9698;51.976;7.570;2023-04-22T06:35:09;8.10;;;7.30;;
19131;SDS011;9698;51.976;7.570;2023-04-22T06:37:37;7.87;;;6.77;;
19131;SDS011;9698;51.976;7.570;2023-04-22T06:40:06;7.93;;;7.13;;
19131;SDS011;9698;51.976;7.570;2023-04-22T06:42:36;9.43;;;7.10;;
19131;SDS011;9698;51.976;7.570;2023-04-22T06:45:05;8.13;;;7.30;;
19131;SDS011;9698;51.976;7.570;2023-04-22T06:47:34;9.17;;;6.97;;
19131;SDS011;9698;51.976;7.570;2023-04-22T06:50:02;8.20;;;7.20;;
19131;SDS011;9698;51.976;7.570;2023-04-22T06:52:31;7.60;;;6.60;;
19131;SDS011;9698;51.976;7.570;2023-04-22T06:55:00;7.73;;;7.03;;
19131;SDS011;9698;51.976;7.570;2023-04-22T06:57:28;7.53;;;6.73;;
19131;SDS011;9698;51.976;7.570;2023-04-22T06:59:56;7.50;;;6.70;;
19131;SDS011;9698;51.976;7.570;2023-04-22T07:02:24;8.87;;;6.70;;
19131;SDS011;9698;51.976;7.570;2023-04-22T07:04:52;8.87;;;7.23;;
19131;SDS011;9698;51.976;7.570;2023-04-22T07:07:19;8.57;;;7.43;;
19131;SDS011;9698;51.976;7.570;2023-04-22T07:09:47;7.10;;;6.37;;
19131;SDS011;9698;51.976;7.570;2023-04-22T07:12:15;6.63;;;6.00;;
19131;SDS011;9698;51.976;7.570;2023-04-22T07:14:43;8.83;;;6.70;;
19131;SDS011;9698;51.976;7.570;2023-04-22T07:17:12;9.40;;;6.63;;
19131;SDS011;9698;51.976;7.570;2023-04-22T07:19:40;8.53;;;6.63;;
19131;SDS011;9698;51.976;7.570;2023-04-22T07:22:08;7.27;;;6.47;;
19131;SDS011;9698;51.976;7.570;2023-04-22T07:24:36;7.37;;;6.20;;
19131;SDS011;9698;51.976;7.570;2023-04-22T07:27:05;7.20;;;6.50;;
19131;SDS011;9698;51.976;7.570;2023-04-22T07:29:33;14.27;;;6.97;;
19131;SDS011;9698;51.976;7.570;2023-04-22T07:32:00;8.67;;;6.93;;
19131;SDS011;9698;51.976;7.570;2023-04-22T07:34:28;7.03;;;6.17;;
19131;SDS011;9698;51.976;7.570;2023-04-22T07:36:56;6.30;;;5.73;;
19131;SDS011;9698;51.976;7.570;2023-04-22T07:39:24;6.63;;;6.00;;
19131;SDS011;9698;51.976;7.570;2023-04-22T07:41:52;7.07;;;6.37;;
19131;SDS011;9698;51.976;7.570;2023-04-22T07:44:22;7.33;;;5.80;;
19131;SDS011;9698;51.976;7.570;2023-04-22T07:46:50;6.97;;;6.03;;
19131;SDS011;9698;51.976;7.570;2023-04-22T07:49:19;7.27;;;5.97;;
19131;SDS011;9698;51.976;7.570;2023-04-22T07:51:46;6.23;;;5.63;;
19131;SDS011;9698;51.976;7.570;2023-04-22T07:54:14;6.83;;;6.07;;
19131;SDS011;9698;51.976;7.570;2023-04-22T07:56:42;6.93;;;5.93;;
19131;SDS011;9698;51.976;7.570;2023-04-22T07:59:10;6.80;;;6.10;;
19131;SDS011;9698;51.976;7.570;2023-04-22T08:01:38;6.40;;;5.80;;
19131;SDS011;9698;51.976;7.570;2023-04-22T08:04:06;8.13;;;6.67;;
19131;SDS011;9698;51.976;7.570;2023-04-22T08:06:34;6.93;;;6.00;;
19131;SDS011;9698;51.976;7.570;2023-04-22T08:09:02;6.97;;;6.10;;
19131;SDS011;9698;51.976;7.570;2023-04-22T08:11:30;5.87;;;5.33;;
19131;SDS011;9698;51.976;7.570;2023-04-22T08:13:59;6.50;;;5.90;;
19131;SDS011;9698;51.976;7.570;2023-04-22T08:16:26;6.43;;;5.57;;
19131;SDS011;9698;51.976;7.570;2023-04-22T08:18:54;6.53;;;5.13;;
19131;SDS011;9698;51.976;7.570;2023-04-22T08:21:23;5.67;;;5.07;;
19131;SDS011;9698;51.976;7.570;2023-04-22T08:23:52;5.50;;;5.00;;
19131;SDS011;9698;51.976;7.570;2023-04-22T08:26:20;5.87;;;5.30;;
19131;SDS011;9698;51.976;7.570;2023-04-22T08:28:48;6.20;;;5.60;;
19131;SDS011;9698;51.976;7.570;2023-04-22T08:31:16;5.53;;;4.73;;
19131;SDS011;9698;51.976;7.570;2023-04-22T08:33:44;5.13;;;4.63;;
19131;SDS011;9698;51.976;7.570;2023-04-22T08:36:12;5.40;;;4.73;;
19131;SDS011;9698;51.976;7.570;2023-04-22T08:38:40;6.83;;;4.67;;
19131;SDS011;9698;51.976;7.570;2023-04-22T08:41:08;5.27;;;4.53;;
19131;SDS011;9698;51.976;7.570;2023-04-22T08:43:37;6.30;;;4.40;;
19131;SDS011;9698;51.976;7.570;2023-04-22T08:46:05;5.10;;;4.60;;
19131;SDS011;9698;51.976;7.570;2023-04-22T08:48:33;5.07;;;4.03;;
19131;SDS011;9698;51.976;7.570;2023-04-22T08:51:02;5.03;;;3.93;;
19131;SDS011;9698;51.976;7.570;2023-04-22T08:53:31;5.97;;;4.10;;
19131;SDS011;9698;51.976;7.570;2023-04-22T08:55:59;4.60;;;4.20;;
19131;SDS011;9698;51.976;7.570;2023-04-22T08:58:27;4.67;;;3.67;;
19131;SDS011;9698;51.976;7.570;2023-04-22T09:00:55;6.70;;;3.87;;
19131;SDS011;9698;51.976;7.570;2023-04-22T09:03:23;11.13;;;3.93;;
19131;SDS011;9698;51.976;7.570;2023-04-22T09:05:53;5.27;;;3.60;;
19131;SDS011;9698;51.976;7.570;2023-04-22T09:08:22;3.80;;;3.40;;
19131;SDS011;9698;51.976;7.570;2023-04-22T09:10:51;4.00;;;3.40;;
19131;SDS011;9698;51.976;7.570;2023-04-22T09:13:19;5.37;;;3.47;;
19131;SDS011;9698;51.976;7.570;2023-04-22T09:15:48;5.50;;;3.80;;
19131;SDS011;9698;51.976;7.570;2023-04-22T09:18:16;4.87;;;3.90;;
19131;SDS011;9698;51.976;7.570;2023-04-22T09:20:46;4.47;;;3.77;;
19131;SDS011;9698;51.976;7.570;2023-04-22T09:23:14;4.10;;;3.60;;
19131;SDS011;9698;51.976;7.570;2023-04-22T09:25:43;5.33;;;4.23;;
19131;SDS011;9698;51.976;7.570;2023-04-22T09:28:15;4.37;;;3.97;;
19131;SDS011;9698;51.976;7.570;2023-04-22T09:30:44;5.80;;;3.80;;
19131;SDS011;9698;51.976;7.570;2023-04-22T09:33:12;5.30;;;4.00;;
19131;SDS011;9698;51.976;7.570;2023-04-22T09:35:42;6.00;;;3.90;;
19131;SDS011;9698;51.976;7.570;2023-04-22T09:38:10;6.63;;;4.50;;
19131;SDS011;9698;51.976;7.570;2023-04-22T09:40:41;4.73;;;3.90;;
19131;SDS011;9698;51.976;7.570;2023-04-22T09:43:28;5.60;;;4.27;;
19131;SDS011;9698;51.976;7.570;2023-04-22T09:45:59;4.50;;;4.10;;
19131;SDS011;9698;51.976;7.570;2023-04-22T09:48:27;4.47;;;3.90;;
19131;SDS011;9698;51.976;7.570;2023-04-22T09:50:55;4.50;;;4.10;;
19131;SDS011;9698;51.976;7.570;2023-04-22T09:53:26;4.17;;;3.57;;
19131;SDS011;9698;51.976;7.570;2023-04-22T09:55:55;6.87;;;4.10;;
19131;SDS011;9698;51.976;7.570;2023-04-22T09:58:25;4.47;;;3.50;;
19131;SDS011;9698;51.976;7.570;2023-04-22T10:00:54;4.93;;;3.70;;
19131;SDS011;9698;51.976;7.570;2023-04-22T10:03:24;4.60;;;3.40;;
19131;SDS011;9698;51.976;7.570;2023-04-22T10:05:52;5.00;;;3.33;;
19131;SDS011;9698;51.976;7.570;2023-04-22T10:08:20;4.00;;;3.27;;
19131;SDS011;9698;51.976;7.570;2023-04-22T10:10:51;4.20;;;3.77;;
19131;SDS011;9698;51.976;7.570;2023-04-22T10:13:20;6.03;;;4.27;;
19131;SDS011;9698;51.976;7.570;2023-04-22T10:15:49;4.90;;;4.10;;
19131;SDS011;9698;51.976;7.570;2023-04-22T10:18:19;4.50;;;4.07;;
19131;SDS011;9698;51.976;7.570;2023-04-22T10:20:49;5.17;;;3.73;;
19131;SDS011;9698;51.976;7.570;2023-04-22T10:23:19;6.00;;;3.73;;
19131;SDS011;9698;51.976;7.570;2023-04-22T10:25:51;4.57;;;4.10;;
19131;SDS011;9698;51.976;7.570;2023-04-22T10:28:21;4.90;;;4.03;;
19131;SDS011;9698;51.976;7.570;2023-04-22T10:30:50;3.77;;;3.00;;
19131;SDS011;9698;51.976;7.570;2023-04-22T10:33:36;5.17;;;3.60;;
19131;SDS011;9698;51.976;7.570;2023-04-22T10:36:05;4.27;;;3.57;;
19131;SDS011;9698;51.976;7.570;2023-04-22T10:38:35;4.43;;;3.43;;
19131;SDS011;9698;51.976;7.570;2023-04-22T10:41:04;5.23;;;3.37;;
19131;SDS011;9698;51.976;7.570;2023-04-22T10:43:41;4.47;;;2.93;;
19131;SDS011;9698;51.976;7.570;2023-04-22T10:49:22;2.60;;;2.40;;
19131;SDS011;9698;51.976;7.570;2023-04-22T10:51:51;3.53;;;2.77;;
19131;SDS011;9698;51.976;7.570;2023-04-22T10:57:33;4.00;;;2.93;;
19131;SDS011;9698;51.976;7.570;2023-04-22T11:03:12;3.13;;;2.83;;
19131;SDS011;9698;51.976;7.570;2023-04-22T11:05:42;3.03;;;2.60;;
19131;SDS011;9698;51.976;7.570;2023-04-22T11:08:15;4.10;;;3.00;;
19131;SDS011;9698;51.976;7.570;2023-04-22T11:10:49;3.17;;;2.73;;
19131;SDS011;9698;51.976;7.570;2023-04-22T11:13:17;3.23;;;2.50;;
19131;SDS011;9698;51.976;7.570;2023-04-22T11:15:47;3.17;;;2.87;;
19131;SDS011;9698;51.976;7.570;2023-04-22T11:18:17;3.77;;;3.00;;
19131;SDS011;9698;51.976;7.570;2023-04-22T11:20:47;3.10;;;2.80;;
19131;SDS011;9698;51.976;7.570;2023-04-22T11:23:20;5.97;;;2.90;;
19131;SDS011;9698;51.976;7.570;2023-04-22T11:25:53;4.10;;;2.83;;
19131;SDS011;9698;51.976;7.570;2023-04-22T11:28:22;3.70;;;2.40;;
19131;SDS011;9698;51.976;7.570;2023-04-22T11:30:49;5.27;;;2.70;;
19131;SDS011;9698;51.976;7.570;2023-04-22T11:33:18;3.70;;;2.53;;
19131;SDS011;9698;51.976;7.570;2023-04-22T11:36:05;3.10;;;2.70;;
19131;SDS011;9698;51.976;7.570;2023-04-22T11:38:37;5.53;;;3.00;;
19131;SDS011;9698;51.976;7.570;2023-04-22T11:41:05;3.20;;;2.90;;
19131;SDS011;9698;51.976;7.570;2023-04-22T11:43:33;4.23;;;2.63;;
19131;SDS011;9698;51.976;7.570;2023-04-22T11:46:11;4.13;;;3.20;;
19131;SDS011;9698;51.976;7.570;2023-04-22T11:48:39;4.13;;;2.70;;
19131;SDS011;9698;51.976;7.570;2023-04-22T11:51:08;3.93;;;3.13;;
19131;SDS011;9698;51.976;7.570;2023-04-22T11:53:37;3.20;;;2.63;;
19131;SDS011;9698;51.976;7.570;2023-04-22T11:56:16;3.77;;;2.50;;
19131;SDS011;9698;51.976;7.570;2023-04-22T11:58:46;5.70;;;2.30;;
19131;SDS011;9698;51.976;7.570;2023-04-22T12:01:14;3.63;;;2.50;;
19131;SDS011;9698;51.976;7.570;2023-04-22T12:03:43;3.60;;;2.30;;
19131;SDS011;9698;51.976;7.570;2023-04-22T12:06:11;3.20;;;2.80;;
19131;SDS011;9698;51.976;7.570;2023-04-22T12:08:39;6.70;;;2.80;;
19131;SDS011;9698;51.976;7.570;2023-04-22T12:11:10;3.77;;;2.73;;
19131;SDS011;9698;51.976;7.570;2023-04-22T12:13:40;3.00;;;2.33;;
19131;SDS011;9698;51.976;7.570;2023-04-22T12:16:11;3.70;;;2.50;;
19131;SDS011;9698;51.976;7.570;2023-04-22T12:18:41;5.00;;;2.40;;
19131;SDS011;9698;51.976;7.570;2023-04-22T12:21:16;2.67;;;2.20;;
19131;SDS011;9698;51.976;7.570;2023-04-22T12:23:45;2.50;;;2.30;;
19131;SDS011;9698;51.976;7.570;2023-04-22T12:26:14;3.47;;;2.70;;
19131;SDS011;9698;51.976;7.570;2023-04-22T12:28:43;3.40;;;2.33;;
19131;SDS011;9698;51.976;7.570;2023-04-22T12:31:12;3.10;;;2.60;;
19131;SDS011;9698;51.976;7.570;2023-04-22T12:33:41;3.40;;;2.20;;
19131;SDS011;9698;51.976;7.570;2023-04-22T12:36:09;5.63;;;2.63;;
19131;SDS011;9698;51.976;7.570;2023-04-22T12:38:38;3.57;;;2.57;;
19131;SDS011;9698;51.976;7.570;2023-04-22T12:41:06;4.27;;;3.00;;
19131;SDS011;9698;51.976;7.570;2023-04-22T12:43:34;3.73;;;2.60;;
19131;SDS011;9698;51.976;7.570;2023-04-22T12:46:03;5.83;;;2.97;;
19131;SDS011;9698;51.976;7.570;2023-04-22T12:48:31;3.17;;;2.43;;
19131;SDS011;9698;51.976;7.570;2023-04-22T12:50:59;4.03;;;3.00;;
19131;SDS011;9698;51.976;7.570;2023-04-22T12:53:27;4.27;;;2.60;;
19131;SDS011;9698;51.976;7.570;2023-04-22T12:55:55;3.80;;;2.33;;
19131;SDS011;9698;51.976;7.570;2023-04-22T12:58:25;3.87;;;2.73;;
19131;SDS011;9698;51.976;7.570;2023-04-22T13:00:53;4.17;;;2.43;;
19131;SDS011;9698;51.976;7.570;2023-04-22T13:03:21;4.07;;;2.40;;
19131;SDS011;9698;51.976;7.570;2023-04-22T13:05:50;3.00;;;2.30;;
19131;SDS011;9698;51.976;7.570;2023-04-22T13:08:18;3.93;;;2.50;;
19131;SDS011;9698;51.976;7.570;2023-04-22T13:10:47;5.33;;;3.40;;
19131;SDS011;9698;51.976;7.570;2023-04-22T13:13:17;2.67;;;2.47;;
19131;SDS011;9698;51.976;7.570;2023-04-22T13:15:45;6.47;;;3.70;;
19131;SDS011;9698;51.976;7.570;2023-04-22T13:18:18;4.50;;;2.80;;
19131;SDS011;9698;51.976;7.570;2023-04-22T13:20:49;3.93;;;2.20;;
19131;SDS011;9698;51.976;7.570;2023-04-22T13:23:17;2.53;;;2.33;;
19131;SDS011;9698;51.976;7.570;2023-04-22T13:25:46;4.47;;;2.50;;
19131;SDS011;9698;51.976;7.570;2023-04-22T13:28:14;4.20;;;2.77;;
19131;SDS011;9698;51.976;7.570;2023-04-22T13:30:42;3.13;;;2.67;;
19131;SDS011;9698;51.976;7.570;2023-04-22T13:33:10;4.50;;;2.60;;
19131;SDS011;9698;51.976;7.570;2023-04-22T13:35:38;2.63;;;2.40;;
19131;SDS011;9698;51.976;7.570;2023-04-22T13:38:06;6.43;;;2.70;;
19131;SDS011;9698;51.976;7.570;2023-04-22T13:40:37;4.10;;;2.53;;
19131;SDS011;9698;51.976;7.570;2023-04-22T13:43:06;3.63;;;3.33;;
19131;SDS011;9698;51.976;7.570;2023-04-22T13:45:37;4.40;;;2.83;;
19131;SDS011;9698;51.976;7.570;2023-04-22T13:48:06;5.90;;;2.97;;
19131;SDS011;9698;51.976;7.570;2023-04-22T13:50:34;3.07;;;2.77;;
19131;SDS011;9698;51.976;7.570;2023-04-22T13:53:02;3.40;;;2.90;;
19131;SDS011;9698;51.976;7.570;2023-04-22T13:55:30;2.80;;;2.50;;
19131;SDS011;9698;51.976;7.570;2023-04-22T13:57:58;4.83;;;3.03;;
19131;SDS011;9698;51.976;7.570;2023-04-22T14:00:26;4.10;;;2.90;;
19131;SDS011;9698;51.976;7.570;2023-04-22T14:02:55;4.23;;;2.97;;
19131;SDS011;9698;51.976;7.570;2023-04-22T14:05:23;2.77;;;2.57;;
19131;SDS011;9698;51.976;7.570;2023-04-22T14:07:51;4.57;;;2.83;;
19131;SDS011;9698;51.976;7.570;2023-04-22T14:10:20;5.53;;;3.10;;
19131;SDS011;9698;51.976;7.570;2023-04-22T14:12:48;4.83;;;2.93;;
19131;SDS011;9698;51.976;7.570;2023-04-22T14:15:16;3.10;;;2.80;;
19131;SDS011;9698;51.976;7.570;2023-04-22T14:17:44;4.17;;;2.80;;
19131;SDS011;9698;51.976;7.570;2023-04-22T14:20:15;4.53;;;3.10;;
19131;SDS011;9698;51.976;7.570;2023-04-22T14:22:43;4.10;;;3.10;;
19131;SDS011;9698;51.976;7.570;2023-04-22T14:25:12;8.17;;;6.13;;
19131;SDS011;9698;51.976;7.570;2023-04-22T14:27:41;10.90;;;6.90;;
19131;SDS011;9698;51.976;7.570;2023-04-22T14:30:10;10.47;;;6.23;;
19131;SDS011;9698;51.976;7.570;2023-04-22T14:32:40;4.67;;;4.03;;
19131;SDS011;9698;51.976;7.570;2023-04-22T14:35:08;4.73;;;3.23;;
19131;SDS011;9698;51.976;7.570;2023-04-22T14:37:36;3.20;;;2.70;;
19131;SDS011;9698;51.976;7.570;2023-04-22T14:40:07;4.67;;;3.20;;
19131;SDS011;9698;51.976;7.570;2023-04-22T14:42:37;3.50;;;2.60;;
19131;SDS011;9698;51.976;7.570;2023-04-22T14:45:06;4.33;;;3.00;;
19131;SDS011;9698;51.976;7.570;2023-04-22T14:47:35;4.03;;;2.70;;
19131;SDS011;9698;51.976;7.570;2023-04-22T14:50:07;4.40;;;3.07;;
19131;SDS011;9698;51.976;7.570;2023-04-22T14:52:38;4.70;;;3.10;;
19131;SDS011;9698;51.976;7.570;2023-04-22T14:55:06;4.13;;;3.10;;
19131;SDS011;9698;51.976;7.570;2023-04-22T14:57:49;5.27;;;3.10;;
19131;SDS011;9698;51.976;7.570;2023-04-22T15:00:21;4.57;;;3.00;;
19131;SDS011;9698;51.976;7.570;2023-04-22T15:02:50;5.50;;;3.17;;
19131;SDS011;9698;51.976;7.570;2023-04-22T15:05:19;3.67;;;2.80;;
19131;SDS011;9698;51.976;7.570;2023-04-22T15:07:48;4.47;;;2.80;;
19131;SDS011;9698;51.976;7.570;2023-04-22T15:10:16;5.00;;;3.47;;
19131;SDS011;9698;51.976;7.570;2023-04-22T15:12:45;5.97;;;3.30;;
19131;SDS011;9698;51.976;7.570;2023-04-22T15:15:13;3.67;;;3.10;;
19131;SDS011;9698;51.976;7.570;2023-04-22T15:17:43;3.77;;;2.90;;
19131;SDS011;9698;51.976;7.570;2023-04-22T15:20:11;5.70;;;3.83;;
19131;SDS011;9698;51.976;7.570;2023-04-22T15:22:40;3.03;;;2.70;;